Time,TemperatureF,DewpointF,PressureIn,WindDirection,WindDirectionDegrees,WindSpeedMPH,WindSpeedGustMPH,Humidity,HourlyPrecipIn,Conditions,Clouds,dailyrainin,SoftwareType,DateUTC
2013-08-24 00:11:00,60.0,49.0,29.70,SSE,157,2.0,3.0,66,0.00,,,0.00,,2013-08-24 07:11:00,
2013-08-24 00:22:00,60.0,48.0,29.70,SSE,160,1.0,4.0,64,0.00,,,0.00,,2013-08-24 07:22:00,
2013-08-24 00:42:00,60.0,48.0,29.70,SSE,157,1.0,3.0,65,0.00,,,0.00,,2013-08-24 07:42:00,
2013-08-24 00:53:00,59.0,48.0,29.70,SE,142,1.0,3.0,66,0.00,,,0.00,,2013-08-24 07:53:00,
2013-08-24 01:12:00,59.0,48.0,29.70,SSE,153,2.0,3.0,67,0.00,,,0.00,,2013-08-24 08:12:00,
2013-08-24 01:22:00,59.0,48.0,29.70,SE,140,1.0,3.0,67,0.00,,,0.00,,2013-08-24 08:22:00,
2013-08-24 01:32:00,59.0,48.0,29.70,SE,140,1.0,3.0,67,0.00,,,0.00,,2013-08-24 08:32:00,
2013-08-24 01:42:00,59.0,48.0,29.70,SE,140,1.0,3.0,67,0.00,,,0.00,,2013-08-24 08:42:00,
2013-08-24 01:52:00,58.0,47.0,29.70,SE,131,2.0,3.0,67,0.00,,,0.00,,2013-08-24 08:52:00,
2013-08-24 02:11:00,58.0,47.0,29.70,SE,131,2.0,3.0,68,0.00,,,0.00,,2013-08-24 09:11:00,
2013-08-24 02:22:00,57.0,47.0,29.70,SE,131,1.0,3.0,69,0.00,,,0.00,,2013-08-24 09:22:00,
2013-08-24 02:44:00,57.0,47.0,29.70,SE,131,1.0,3.0,70,0.00,,,0.00,,2013-08-24 09:44:00,
2013-08-24 02:53:00,56.0,46.0,29.70,SE,131,2.0,3.0,70,0.00,,,0.00,,2013-08-24 09:53:00,
2013-08-24 03:13:00,56.0,47.0,29.70,SE,131,1.0,3.0,71,0.00,,,0.00,,2013-08-24 10:13:00,
2013-08-24 03:23:00,56.0,47.0,29.70,SE,131,1.0,3.0,71,0.00,,,0.00,,2013-08-24 10:23:00,
2013-08-24 03:42:00,55.0,47.0,29.70,SE,131,1.0,2.0,73,0.00,,,0.00,,2013-08-24 10:42:00,
2013-08-24 03:53:00,55.0,47.0,29.70,SE,131,1.0,2.0,73,0.00,,,0.00,,2013-08-24 10:53:00,
2013-08-24 04:11:00,54.0,46.0,29.70,SE,131,1.0,2.0,75,0.00,,,0.00,,2013-08-24 11:11:00,
2013-08-24 04:22:00,54.0,46.0,29.70,SE,131,1.0,2.0,75,0.00,,,0.00,,2013-08-24 11:22:00,
2013-08-24 04:42:00,54.0,47.0,29.70,SE,131,1.0,2.0,77,0.00,,,0.00,,2013-08-24 11:42:00,
2013-08-24 04:52:00,54.0,47.0,29.70,SE,131,1.0,2.0,77,0.00,,,0.00,,2013-08-24 11:52:00,
2013-08-24 05:11:00,53.0,47.0,29.70,SE,131,1.0,2.0,79,0.00,,,0.00,,2013-08-24 12:11:00,
2013-08-24 05:21:00,53.0,47.0,29.70,SE,131,1.0,2.0,81,0.00,,,0.00,,2013-08-24 12:21:00,
2013-08-24 05:41:00,53.0,47.0,29.70,SE,131,1.0,3.0,81,0.00,,,0.00,,2013-08-24 12:41:00,
2013-08-24 05:52:00,53.0,47.0,29.70,SSE,147,0.0,2.0,81,0.00,,,0.00,,2013-08-24 12:52:00,
2013-08-24 06:11:00,53.0,48.0,29.70,SSE,153,1.0,3.0,83,0.00,,,0.00,,2013-08-24 13:11:00,
2013-08-24 06:22:00,53.0,48.0,29.70,SSE,153,0.0,3.0,83,0.00,,,0.00,,2013-08-24 13:22:00,
2013-08-24 06:42:00,53.0,48.0,29.71,ESE,119,1.0,3.0,83,0.00,,,0.00,,2013-08-24 13:42:00,
2013-08-24 06:52:00,53.0,48.0,29.71,ESE,119,0.0,2.0,84,0.00,,,0.00,,2013-08-24 13:52:00,
2013-08-24 07:11:00,52.0,48.0,29.71,ESE,119,0.0,2.0,85,0.00,,,0.00,,2013-08-24 14:11:00,
2013-08-24 07:22:00,52.0,48.0,29.71,ESE,119,0.0,2.0,86,0.00,,,0.00,,2013-08-24 14:22:00,
2013-08-24 07:42:00,52.0,48.0,29.72,ESE,119,0.0,1.0,85,0.00,,,0.00,,2013-08-24 14:42:00,
2013-08-24 07:52:00,52.0,48.0,29.72,ESE,119,0.0,2.0,86,0.00,,,0.00,,2013-08-24 14:52:00,
2013-08-24 08:11:00,52.0,48.0,29.73,ESE,119,0.0,1.0,86,0.00,,,0.00,,2013-08-24 15:11:00,
2013-08-24 08:21:00,52.0,48.0,29.73,ESE,119,0.0,1.0,86,0.00,,,0.00,,2013-08-24 15:21:00,
2013-08-24 08:45:00,53.0,49.0,29.73,ESE,119,0.0,1.0,85,0.00,,,0.00,,2013-08-24 15:45:00,
2013-08-24 08:54:00,55.0,50.0,29.73,NW,305,1.0,2.0,83,0.00,,,0.00,,2013-08-24 15:54:00,
2013-08-24 09:13:00,59.0,51.0,29.73,WNW,284,1.0,3.0,76,0.00,,,0.00,,2013-08-24 16:13:00,
2013-08-24 09:23:00,62.0,51.0,29.73,NNW,337,1.0,5.0,67,0.00,,,0.00,,2013-08-24 16:23:00,
2013-08-24 09:42:00,65.0,50.0,29.73,WSW,253,0.0,3.0,59,0.00,,,0.00,,2013-08-24 16:42:00,
2013-08-24 10:42:00,72.0,51.0,29.75,WSW,244,2.0,8.0,48,0.00,,,0.00,,2013-08-24 17:42:00,
2013-08-24 11:13:00,74.0,51.0,29.75,NW,307,3.0,7.0,45,0.00,,,0.00,,2013-08-24 18:13:00,
2013-08-24 11:22:00,75.0,52.0,29.75,WNW,286,2.0,7.0,44,0.00,,,0.00,,2013-08-24 18:22:00,
2013-08-24 11:42:00,76.0,51.0,29.75,WNW,286,2.0,6.0,42,0.00,,,0.00,,2013-08-24 18:42:00,
2013-08-24 11:53:00,78.0,52.0,29.75,NW,323,1.0,8.0,41,0.00,,,0.00,,2013-08-24 18:53:00,
2013-08-24 12:12:00,80.0,54.0,29.74,West,266,3.0,8.0,41,0.00,,,0.00,,2013-08-24 19:12:00,
2013-08-24 12:21:00,81.0,54.0,29.74,NW,325,5.0,10.0,39,0.00,,,0.00,,2013-08-24 19:21:00,
2013-08-24 12:31:00,81.0,54.0,29.74,NW,325,5.0,10.0,39,0.00,,,0.00,,2013-08-24 19:31:00,
2013-08-24 12:42:00,81.0,54.0,29.74,NW,325,5.0,10.0,39,0.00,,,0.00,,2013-08-24 19:42:00,
2013-08-24 12:52:00,82.0,54.0,29.73,West,274,5.0,10.0,38,0.00,,,0.00,,2013-08-24 19:52:00,
2013-08-24 13:11:00,84.0,54.0,29.73,West,259,4.0,9.0,36,0.00,,,0.00,,2013-08-24 20:11:00,
2013-08-24 13:22:00,84.0,53.0,29.73,WSW,243,4.0,14.0,35,0.00,,,0.00,,2013-08-24 20:22:00,
2013-08-24 13:42:00,84.0,54.0,29.72,West,279,4.0,12.0,36,0.00,,,0.00,,2013-08-24 20:42:00,
2013-08-24 13:52:00,84.0,55.0,29.72,WSW,245,7.0,13.0,37,0.00,,,0.00,,2013-08-24 20:52:00,
2013-08-24 14:11:00,84.0,56.0,29.72,WSW,242,6.0,13.0,38,0.00,,,0.00,,2013-08-24 21:11:00,
2013-08-24 14:22:00,83.0,55.0,29.72,East,98,3.0,9.0,39,0.00,,,0.00,,2013-08-24 21:22:00,
2013-08-24 14:43:00,83.0,55.0,29.72,WSW,252,3.0,14.0,39,0.00,,,0.00,,2013-08-24 21:43:00,
2013-08-24 14:54:00,83.0,55.0,29.72,WSW,252,3.0,14.0,39,0.00,,,0.00,,2013-08-24 21:54:00,
2013-08-24 15:13:00,83.0,57.0,29.71,West,266,3.0,13.0,41,0.00,,,0.00,,2013-08-24 22:13:00,
2013-08-24 15:23:00,82.0,57.0,29.72,NNW,340,2.0,9.0,42,0.00,,,0.00,,2013-08-24 22:23:00,
2013-08-24 15:42:00,82.0,57.0,29.71,West,260,3.0,11.0,42,0.00,,,0.00,,2013-08-24 22:42:00,
2013-08-24 15:53:00,82.0,56.0,29.71,NW,323,3.0,14.0,41,0.00,,,0.00,,2013-08-24 22:53:00,
2013-08-24 16:12:00,81.0,56.0,29.70,ENE,64,4.0,15.0,43,0.00,,,0.00,,2013-08-24 23:12:00,
2013-08-24 16:22:00,81.0,56.0,29.70,West,261,3.0,14.0,42,0.00,,,0.00,,2013-08-24 23:22:00,
2013-08-24 16:42:00,81.0,57.0,29.70,West,276,3.0,12.0,44,0.00,,,0.00,,2013-08-24 23:42:00,
2013-08-24 16:53:00,81.0,56.0,29.70,SW,223,3.0,13.0,42,0.00,,,0.00,,2013-08-24 23:53:00,
2013-08-24 17:11:00,80.0,57.0,29.71,WSW,242,3.0,13.0,45,0.00,,,0.00,,2013-08-25 00:11:00,
2013-08-24 17:21:00,79.0,56.0,29.71,SE,127,4.0,12.0,46,0.00,,,0.00,,2013-08-25 00:21:00,
2013-08-24 17:41:00,78.0,56.0,29.71,WSW,257,2.0,11.0,46,0.00,,,0.00,,2013-08-25 00:41:00,
2013-08-24 17:52:00,76.0,56.0,29.71,South,176,4.0,9.0,50,0.00,,,0.00,,2013-08-25 00:52:00,
2013-08-24 18:11:00,76.0,57.0,29.71,West,267,4.0,10.0,51,0.00,,,0.00,,2013-08-25 01:11:00,
2013-08-24 18:22:00,75.0,56.0,29.71,SSE,165,4.0,10.0,51,0.00,,,0.00,,2013-08-25 01:22:00,
2013-08-24 18:42:00,75.0,56.0,29.71,SSE,163,1.0,8.0,52,0.00,,,0.00,,2013-08-25 01:42:00,
2013-08-24 18:52:00,73.0,56.0,29.71,West,271,2.0,9.0,55,0.00,,,0.00,,2013-08-25 01:52:00,
2013-08-24 19:11:00,72.0,56.0,29.71,SE,135,2.0,6.0,58,0.00,,,0.00,,2013-08-25 02:11:00,
2013-08-24 19:22:00,72.0,56.0,29.71,NNE,16,1.0,5.0,58,0.00,,,0.00,,2013-08-25 02:22:00,
2013-08-24 19:33:00,72.0,56.0,29.71,NNE,16,1.0,5.0,58,0.00,,,0.00,,2013-08-25 02:33:00,
2013-08-24 19:42:00,72.0,56.0,29.71,NNE,16,1.0,5.0,58,0.00,,,0.00,,2013-08-25 02:42:00,
2013-08-24 19:52:00,69.0,56.0,29.72,South,173,2.0,5.0,63,0.00,,,0.00,,2013-08-25 02:52:00,
2013-08-24 20:11:00,67.0,55.0,29.72,SSE,165,2.0,7.0,66,0.00,,,0.00,,2013-08-25 03:11:00,
2013-08-24 20:44:00,66.0,55.0,29.73,SE,139,3.0,5.0,68,0.00,,,0.00,,2013-08-25 03:44:00,
2013-08-24 20:54:00,65.0,55.0,29.73,South,191,2.0,5.0,71,0.00,,,0.00,,2013-08-25 03:54:00,
2013-08-24 21:02:00,-999.0,-99.9,29.73,ENE,59,0.0,4.0,-999,-99.99,,,-99.99,,2013-08-25 04:02:00,
2013-08-24 21:14:00,64.0,55.0,29.73,ENE,59,0.0,4.0,72,0.00,,,0.00,,2013-08-25 04:14:00,
2013-08-24 21:25:00,64.0,55.0,29.74,SW,227,0.0,4.0,73,0.00,,,0.00,,2013-08-25 04:25:00,
2013-08-24 21:43:00,63.0,55.0,29.74,SE,144,1.0,3.0,75,0.00,,,0.00,,2013-08-25 04:43:00,
2013-08-24 21:54:00,63.0,55.0,29.74,SE,144,1.0,3.0,75,0.00,,,0.00,,2013-08-25 04:54:00,
2013-08-24 22:12:00,62.0,55.0,29.75,West,274,2.0,4.0,77,0.00,,,0.00,,2013-08-25 05:12:00,
2013-08-24 22:22:00,62.0,55.0,29.75,SSW,192,0.0,3.0,78,0.00,,,0.00,,2013-08-25 05:22:00,
2013-08-24 22:42:00,61.0,54.0,29.75,WSW,256,0.0,2.0,79,0.00,,,0.00,,2013-08-25 05:42:00,
2013-08-24 22:52:00,61.0,55.0,29.76,WSW,237,1.0,4.0,81,0.00,,,0.00,,2013-08-25 05:52:00,
2013-08-24 23:12:00,61.0,55.0,29.75,WSW,256,1.0,3.0,82,0.00,,,0.00,,2013-08-25 06:12:00,
2013-08-24 23:21:00,61.0,55.0,29.75,WSW,238,0.0,3.0,82,0.00,,,0.00,,2013-08-25 06:21:00,
2013-08-24 23:43:00,60.0,55.0,29.75,South,190,1.0,5.0,83,0.00,,,0.00,,2013-08-25 06:43:00,
2013-08-24 23:52:00,60.0,55.0,29.76,SW,232,1.0,5.0,83,0.00,,,0.00,,2013-08-25 06:52:00,